Time;durP1;ratioP1;P1;durP2;ratioP2;P2;SDS_P1;SDS_P2;PMS_P1;PMS_P2;Temp;Humidity;BMP_temperature;BMP_pressure;BME280_temperature;BME280_humidity;BME280_pressure;Samples;Min_cycle;Max_cycle;Signal;HPM_P1;HPM_P2
2022/07/25 00:01:06;;;;;;;7.10;4.73;;;;;;;21.32;54.19;100536.22;5026350;28;20235;-73
2022/07/25 00:03:33;;;;;;;5.13;4.63;;;;;;;21.26;54.11;100531.50;5033697;28;20195;-72
2022/07/25 00:06:01;;;;;;;5.43;4.50;;;;;;;21.19;54.26;100530.44;5037754;28;20232;-73
2022/07/25 00:08:27;;;;;;;7.13;4.20;;;;;;;21.11;54.47;100532.13;5033402;28;20219;-73
2022/07/25 00:10:54;;;;;;;6.60;4.60;;;;;;;21.03;54.83;100526.69;5039756;28;20612;-72
2022/07/25 00:13:20;;;;;;;5.70;4.37;;;;;;;20.95;54.90;100525.84;5028401;28;20215;-73
2022/07/25 00:15:47;;;;;;;4.23;3.90;;;;;;;20.88;55.13;100512.13;5034746;28;20201;-72
2022/07/25 00:18:13;;;;;;;4.73;4.33;;;;;;;20.83;55.05;100513.63;5033487;28;20208;-72
2022/07/25 00:20:40;;;;;;;4.93;3.53;;;;;;;20.81;54.89;100519.22;5031733;28;20238;-73
2022/07/25 00:23:08;;;;;;;4.63;3.80;;;;;;;20.81;54.65;100502.97;5031535;28;20216;-73
2022/07/25 00:25:34;;;;;;;7.87;4.20;;;;;;;20.86;53.94;100503.31;5030760;28;20721;-74
2022/07/25 00:28:01;;;;;;;4.77;3.80;;;;;;;20.93;53.37;100508.94;5025909;28;20217;-73
2022/07/25 00:30:27;;;;;;;3.90;3.50;;;;;;;20.99;53.06;100497.41;5036973;28;20223;-72
2022/07/25 00:32:54;;;;;;;5.90;4.07;;;;;;;21.05;52.54;100500.31;5037038;28;20208;-73
2022/07/25 00:35:20;;;;;;;5.47;4.30;;;;;;;21.13;52.31;100497.63;5034135;28;20705;-72
2022/07/25 00:37:47;;;;;;;4.93;3.78;;;;;;;21.20;51.77;100489.66;5037016;28;20203;-74
2022/07/25 00:40:15;;;;;;;5.13;3.63;;;;;;;21.26;51.40;100491.72;5034685;28;20713;-72
2022/07/25 00:42:41;;;;;;;5.30;3.50;;;;;;;21.32;51.05;100485.59;5046138;28;20209;-74
2022/07/25 00:45:09;;;;;;;5.72;3.75;;;;;;;21.39;50.88;100483.91;5031767;28;20232;-77
2022/07/25 00:47:36;;;;;;;6.47;4.03;;;;;;;21.44;50.54;100483.41;5041313;28;20259;-76
2022/07/25 00:50:03;;;;;;;5.37;4.07;;;;;;;21.50;50.08;100479.16;5033515;28;20229;-75
2022/07/25 00:52:30;;;;;;;6.50;3.60;;;;;;;21.55;49.93;100479.47;5047264;28;20224;-74
2022/07/25 00:54:56;;;;;;;3.75;3.45;;;;;;;21.60;49.92;100477.09;5031971;28;20206;-75
2022/07/25 00:57:24;;;;;;;5.85;3.28;;;;;;;21.64;49.70;100476.59;5038732;28;20206;-74
2022/07/25 00:59:51;;;;;;;4.05;3.65;;;;;;;21.67;49.37;100468.13;5030677;28;20780;-72
2022/07/25 01:02:17;;;;;;;3.60;3.30;;;;;;;21.70;49.39;100470.47;5035574;28;20217;-72
2022/07/25 01:04:44;;;;;;;5.10;3.10;;;;;;;21.73;49.11;100463.84;5036874;28;20211;-73
2022/07/25 01:07:10;;;;;;;3.47;3.17;;;;;;;21.75;48.95;100461.81;5032210;28;20205;-72
2022/07/25 01:09:37;;;;;;;5.63;3.58;;;;;;;21.75;48.95;100459.94;5036162;28;20251;-72
2022/07/25 01:12:04;;;;;;;4.88;3.50;;;;;;;21.78;48.81;100464.19;5030966;28;20210;-73
2022/07/25 01:14:32;;;;;;;5.60;3.65;;;;;;;21.78;48.83;100459.63;5036831;28;20205;-72
2022/07/25 01:16:59;;;;;;;4.00;3.25;;;;;;;21.80;48.80;100464.88;5038117;28;20208;-72
2022/07/25 01:19:25;;;;;;;5.35;3.78;;;;;;;21.80;48.60;100456.72;5038405;28;20205;-72
2022/07/25 01:21:55;;;;;;;5.45;3.67;;;;;;;21.82;48.48;100457.41;5040857;28;20212;-72
2022/07/25 01:24:21;;;;;;;4.47;3.60;;;;;;;21.83;48.56;100461.81;5040703;28;20283;-72
2022/07/25 01:26:48;;;;;;;3.42;3.13;;;;;;;21.83;48.37;100456.38;5034778;28;20703;-73
2022/07/25 01:29:14;;;;;;;3.70;3.40;;;;;;;21.84;48.42;100452.66;5031618;28;20244;-72
2022/07/25 01:31:41;;;;;;;3.53;2.90;;;;;;;21.84;48.42;100452.66;5037423;28;20203;-73
2022/07/25 01:34:07;;;;;;;4.30;3.20;;;;;;;21.85;48.20;100454.34;5037730;28;20206;-73
2022/07/25 01:36:34;;;;;;;7.65;4.00;;;;;;;21.85;48.16;100451.63;5030821;28;20362;-72
2022/07/25 01:39:02;;;;;;;3.80;3.30;;;;;;;21.85;48.18;100448.94;5038022;28;20208;-72
2022/07/25 01:41:28;;;;;;;3.70;3.40;;;;;;;21.86;48.13;100458.72;5035541;28;20237;-72
2022/07/25 01:43:55;;;;;;;4.50;3.40;;;;;;;21.86;47.91;100444.31;5038948;28;20215;-73
2022/07/25 01:46:21;;;;;;;5.97;3.20;;;;;;;21.86;47.87;100445.16;5043231;28;20232;-75
2022/07/25 01:48:48;;;;;;;3.47;3.17;;;;;;;21.88;47.84;100442.28;5032620;28;20216;-73
2022/07/25 01:51:14;;;;;;;4.43;3.77;;;;;;;21.88;47.72;100442.28;5034304;28;20235;-73
2022/07/25 01:53:41;;;;;;;4.03;3.60;;;;;;;21.89;47.64;100441.25;5028300;28;20202;-74
2022/07/25 01:56:09;;;;;;;2.90;2.70;;;;;;;21.90;47.34;100437.53;5034646;28;20204;-73
2022/07/25 01:58:35;;;;;;;3.80;3.40;;;;;;;21.90;47.17;100438.38;5039785;28;20674;-75
2022/07/25 02:01:02;;;;;;;4.03;3.10;;;;;;;21.91;47.22;100431.94;5033889;28;20228;-74
2022/07/25 02:03:31;;;;;;;3.42;3.13;;;;;;;21.92;47.22;100433.63;5037773;28;20219;-74
2022/07/25 02:06:00;;;;;;;3.67;3.20;;;;;;;21.94;47.08;100436.16;5038298;28;20694;-74
2022/07/25 02:08:26;;;;;;;3.43;3.10;;;;;;;21.92;47.07;100430.06;5041128;28;20451;-74
2022/07/25 02:10:53;;;;;;;4.28;2.97;;;;;;;21.91;47.12;100431.94;5031201;28;20743;-73
2022/07/25 02:13:21;;;;;;;4.90;2.88;;;;;;;21.89;47.03;100427.72;5032583;28;20210;-75
2022/07/25 02:15:48;;;;;;;3.67;2.93;;;;;;;21.88;47.10;100420.59;5033050;28;20205;-74
2022/07/25 02:18:15;;;;;;;3.90;3.50;;;;;;;21.86;47.06;100415.34;5035203;28;20212;-74
2022/07/25 02:20:42;;;;;;;5.87;3.30;;;;;;;21.85;47.00;100408.25;5029779;28;20263;-76
2022/07/25 02:23:09;;;;;;;3.92;2.90;;;;;;;21.87;46.92;100406.19;5032206;28;20208;-74
2022/07/25 02:25:36;;;;;;;3.38;3.03;;;;;;;21.87;46.68;100395.34;5030293;28;20624;-73
2022/07/25 02:28:02;;;;;;;3.35;3.05;;;;;;;21.88;46.63;100396.19;5030584;28;20203;-74
2022/07/25 02:30:30;;;;;;;3.53;2.85;;;;;;;21.88;46.50;100383.47;5040834;28;20232;-74
2022/07/25 02:32:57;;;;;;;3.40;2.60;;;;;;;21.89;46.43;100379.75;5028430;28;20209;-75
2022/07/25 02:35:24;;;;;;;3.42;2.85;;;;;;;21.92;46.09;100373.97;5039833;28;20219;-74
2022/07/25 02:37:50;;;;;;;3.03;2.72;;;;;;;21.93;46.18;100382.97;5039866;28;20205;-74
2022/07/25 02:40:17;;;;;;;2.88;2.63;;;;;;;21.94;46.12;100377.38;5047810;22;20231;-83
2022/07/25 02:42:43;;;;;;;3.27;2.73;;;;;;;21.94;46.02;100377.38;5048215;28;20217;-81
2022/07/25 02:45:10;;;;;;;3.27;2.97;;;;;;;21.96;46.19;100377.19;5051102;28;20576;-81
2022/07/25 02:47:38;;;;;;;3.00;2.70;;;;;;;21.97;46.00;100371.59;5046442;28;20220;-82
2022/07/25 02:50:06;;;;;;;3.15;2.85;;;;;;;21.98;45.94;100370.56;5046282;28;20726;-83
2022/07/25 02:52:32;;;;;;;3.55;2.67;;;;;;;21.99;45.79;100369.56;5046180;28;20569;-82
2022/07/25 02:54:59;;;;;;;4.00;2.95;;;;;;;22.00;45.76;100368.56;5045213;28;20660;-82
2022/07/25 02:57:25;;;;;;;4.35;2.78;;;;;;;22.03;45.80;100362.78;5046816;28;20236;-83
2022/07/25 02:59:52;;;;;;;3.17;2.90;;;;;;;22.03;45.71;100359.22;5046834;28;20208;-83
2022/07/25 03:02:18;;;;;;;3.30;2.50;;;;;;;22.05;45.56;100360.72;5048179;28;20205;-84
2022/07/25 03:04:46;;;;;;;3.83;2.80;;;;;;;22.06;45.55;100366.97;5049351;28;20212;-82
2022/07/25 03:07:13;;;;;;;4.95;2.90;;;;;;;22.04;45.67;100361.72;5044195;28;20255;-83
2022/07/25 03:09:39;;;;;;;3.22;2.50;;;;;;;22.03;45.43;100357.38;5046348;28;20201;-82
2022/07/25 03:12:06;;;;;;;3.75;3.08;;;;;;;22.02;45.58;100352.13;5049413;28;20210;-82
2022/07/25 03:14:32;;;;;;;3.83;2.50;;;;;;;22.00;45.74;100357.72;5048718;28;20206;-83
2022/07/25 03:16:59;;;;;;;2.92;2.58;;;;;;;21.97;45.76;100349.06;5042585;28;20220;-83
2022/07/25 03:19:25;;;;;;;3.20;2.90;;;;;;;21.91;46.12;100350.59;5044275;28;20231;-83
2022/07/25 03:21:53;;;;;;;4.90;3.20;;;;;;;21.85;46.52;100348.63;5046873;28;20685;-82
2022/07/25 03:24:20;;;;;;;3.28;2.97;;;;;;;21.75;47.04;100345.25;5048604;28;20222;-82
2022/07/25 03:26:46;;;;;;;4.17;2.90;;;;;;;21.66;47.44;100349.88;5044476;28;20241;-82
2022/07/25 03:29:13;;;;;;;3.85;3.28;;;;;;;21.55;47.92;100341.28;5045547;28;20216;-83
2022/07/25 03:31:39;;;;;;;4.13;3.70;;;;;;;21.45;48.16;100345.06;5048308;28;20678;-83
2022/07/25 03:34:06;;;;;;;3.23;2.90;;;;;;;21.37;48.39;100341.50;5046571;28;20231;-82
2022/07/25 03:36:32;;;;;;;4.30;3.17;;;;;;;21.29;48.78;100342.41;5049645;28;20219;-82
2022/07/25 03:39:00;;;;;;;3.83;3.43;;;;;;;21.23;48.99;100342.22;5041777;28;20216;-82
2022/07/25 03:41:27;;;;;;;3.50;3.20;;;;;;;21.17;49.10;100335.59;5040047;28;20234;-82
2022/07/25 03:43:53;;;;;;;3.77;3.37;;;;;;;21.12;49.17;100338.84;5045904;28;20611;-82
2022/07/25 03:46:20;;;;;;;4.67;3.10;;;;;;;21.10;49.27;100331.91;5040284;28;20662;-83
2022/07/25 03:48:46;;;;;;;6.23;3.43;;;;;;;21.08;49.25;100333.94;5045742;28;20206;-82
2022/07/25 03:51:13;;;;;;;5.53;3.30;;;;;;;21.04;49.33;100332.59;5041382;28;20675;-83
2022/07/25 03:56:21;;;;;;;7.10;4.40;;;;;;;20.92;50.30;100332.13;5039493;28;20220;-82
2022/07/25 03:58:48;;;;;;;4.70;3.80;;;;;;;20.85;50.77;100335.66;5049155;28;20203;-83
2022/07/25 04:01:15;;;;;;;4.47;4.00;;;;;;;20.77;50.60;100328.41;5049149;28;20207;-82
2022/07/25 04:03:41;;;;;;;4.03;3.70;;;;;;;20.70;51.15;100322.84;5043876;28;20201;-83
2022/07/25 04:06:08;;;;;;;4.23;3.67;;;;;;;20.68;51.33;100322.16;5045783;28;20233;-84
2022/07/25 04:08:34;;;;;;;4.00;3.60;;;;;;;20.65;51.51;100330.59;5039423;28;20210;-84
2022/07/25 04:11:01;;;;;;;7.23;3.80;;;;;;;20.60;51.84;100322.16;5045924;28;20204;-84
2022/07/25 04:13:29;;;;;;;5.10;4.23;;;;;;;20.57;51.98;100325.22;5044578;28;20236;-84
2022/07/25 04:15:56;;;;;;;4.80;3.60;;;;;;;20.54;52.39;100316.59;5038933;28;20311;-82
2022/07/25 04:18:22;;;;;;;4.30;3.80;;;;;;;20.52;52.25;100314.03;5043472;28;20202;-82
2022/07/25 04:20:49;;;;;;;5.43;3.40;;;;;;;20.53;52.40;100312.19;5040413;28;20615;-83
2022/07/25 04:23:15;;;;;;;5.07;4.27;;;;;;;20.51;52.46;100306.09;5040175;28;20210;-83
2022/07/25 04:25:42;;;;;;;5.00;3.90;;;;;;;20.52;52.56;100307.78;5039500;28;20202;-83
2022/07/25 04:28:08;;;;;;;4.57;3.47;;;;;;;20.49;52.65;100303.56;5045090;28;20295;-82
2022/07/25 04:30:36;;;;;;;4.70;4.27;;;;;;;20.50;52.64;100302.53;5047639;28;20209;-82
2022/07/25 04:33:03;;;;;;;5.17;3.90;;;;;;;20.50;52.76;100304.41;5049807;28;20579;-82
2022/07/25 04:35:29;;;;;;;7.23;4.17;;;;;;;20.49;52.98;100300.84;5043603;28;20209;-82
2022/07/25 04:37:56;;;;;;;5.37;4.00;;;;;;;20.50;53.20;100293.59;5037577;28;20211;-83
2022/07/25 04:40:22;;;;;;;4.57;4.17;;;;;;;20.52;53.30;100295.09;5044613;28;20223;-84
2022/07/25 04:42:49;;;;;;;4.80;4.07;;;;;;;20.53;53.51;100283.28;5050252;28;20207;-83
2022/07/25 04:45:15;;;;;;;4.53;3.77;;;;;;;20.54;53.48;100279.56;5050202;28;20202;-84
2022/07/25 04:47:43;;;;;;;5.43;3.83;;;;;;;20.57;53.54;100283.78;5043607;28;20228;-82
2022/07/25 04:50:10;;;;;;;3.90;3.43;;;;;;;20.57;53.54;100279.22;5037973;28;20214;-82
2022/07/25 04:52:37;;;;;;;4.07;3.40;;;;;;;20.60;53.72;100273.44;5042611;28;20212;-83
2022/07/25 04:55:04;;;;;;;4.27;3.87;;;;;;;20.62;53.89;100276.81;5047134;28;20207;-85
2022/07/25 04:57:31;;;;;;;4.33;3.93;;;;;;;20.64;54.21;100274.78;5039765;28;20616;-83
2022/07/25 04:59:57;;;;;;;3.97;3.57;;;;;;;20.66;54.47;100261.94;5049526;28;20214;-83
2022/07/25 05:02:24;;;;;;;9.33;4.10;;;;;;;20.69;54.43;100258.91;5042202;28;21490;-83
2022/07/25 05:04:52;;;;;;;3.60;3.30;;;;;;;20.71;54.37;100256.03;5039552;28;20210;-82
2022/07/25 05:07:18;;;;;;;4.00;3.60;;;;;;;20.75;54.71;100252.81;5035557;28;20239;-83
2022/07/25 05:09:45;;;;;;;5.57;3.97;;;;;;;20.79;54.89;100248.72;5041217;28;20199;-82
2022/07/25 05:12:12;;;;;;;8.17;4.10;;;;;;;20.82;54.92;100244.81;5040469;28;20629;-82
2022/07/25 05:14:38;;;;;;;4.50;3.50;;;;;;;20.91;54.21;100237.53;5047638;28;20220;-82
2022/07/25 05:17:05;;;;;;;5.00;3.67;;;;;;;20.99;53.62;100238.34;5051594;28;20231;-83
2022/07/25 05:19:32;;;;;;;5.97;3.47;;;;;;;21.13;53.07;100236.78;5047579;28;20203;-82
2022/07/25 05:21:59;;;;;;;5.83;3.43;;;;;;;21.28;52.17;100234.22;5047140;28;20215;-82
2022/07/25 05:24:26;;;;;;;4.73;3.30;;;;;;;21.45;51.59;100235.84;5046941;28;20219;-83
2022/07/25 05:26:53;;;;;;;4.22;3.38;;;;;;;21.64;50.89;100229.97;5049029;28;20221;-84
2022/07/25 05:29:19;;;;;;;4.57;3.38;;;;;;;21.84;50.29;100230.34;5049542;28;20218;-83
2022/07/25 05:31:46;;;;;;;4.15;3.67;;;;;;;22.02;49.80;100221.94;5041277;28;20198;-84
2022/07/25 05:34:12;;;;;;;4.30;3.90;;;;;;;22.16;49.28;100219.28;5045811;28;20236;-85
2022/07/25 05:36:39;;;;;;;4.25;3.83;;;;;;;22.35;48.66;100222.50;5046817;28;20600;-84
2022/07/25 05:39:07;;;;;;;4.15;3.70;;;;;;;22.51;48.29;100216.94;5047682;28;20216;-84
2022/07/25 05:41:33;;;;;;;4.32;3.00;;;;;;;22.68;48.00;100212.19;5050016;28;20212;-84
2022/07/25 05:44:00;;;;;;;5.22;4.00;;;;;;;22.83;47.62;100205.75;5041077;28;20210;-84
2022/07/25 05:46:26;;;;;;;4.30;3.25;;;;;;;23.02;47.22;100207.06;5047362;28;20706;-84
2022/07/25 05:48:53;;;;;;;3.53;3.30;;;;;;;23.18;46.88;100209.56;5046300;28;20205;-85
2022/07/25 05:51:19;;;;;;;3.80;3.40;;;;;;;23.36;46.37;100200.19;5045801;28;20292;-84
2022/07/25 05:53:46;;;;;;;5.40;3.97;;;;;;;23.51;45.98;100201.84;5051671;28;20252;-84
2022/07/25 05:56:14;;;;;;;4.28;3.40;;;;;;;23.66;45.69;100196.38;5049312;28;20228;-84
2022/07/25 05:58:41;;;;;;;5.18;3.50;;;;;;;23.82;45.13;100195.31;5043598;28;20203;-84
2022/07/25 06:01:07;;;;;;;5.78;4.15;;;;;;;23.95;44.92;100192.69;5050982;28;20280;-84
2022/07/25 06:03:34;;;;;;;4.43;4.03;;;;;;;24.12;44.53;100187.81;5049338;28;20212;-85
2022/07/25 06:06:01;;;;;;;3.85;3.45;;;;;;;24.31;44.51;100186.34;5051089;28;20217;-85
2022/07/25 06:08:29;;;;;;;4.88;3.47;;;;;;;24.46;44.08;100193.38;5038740;28;20231;-85
2022/07/25 06:10:57;;;;;;;3.80;3.47;;;;;;;24.64;43.88;100184.69;5049392;28;20212;-85
2022/07/25 06:13:25;;;;;;;4.30;3.90;;;;;;;24.80;43.17;100181.66;5052165;28;20216;-84
2022/07/25 06:15:51;;;;;;;3.90;3.55;;;;;;;24.95;43.00;100180.72;5046985;28;20220;-84
2022/07/25 06:18:18;;;;;;;3.60;3.30;;;;;;;25.11;42.28;100180.38;5045520;28;20233;-85
2022/07/25 06:20:45;;;;;;;4.28;3.88;;;;;;;25.24;42.04;100184.03;5047877;28;20207;-84
2022/07/25 06:23:11;;;;;;;4.25;3.83;;;;;;;25.40;41.53;100187.44;5048968;28;20568;-83
2022/07/25 06:25:39;;;;;;;5.22;4.43;;;;;;;25.54;41.21;100181.81;5038509;28;20562;-84
2022/07/25 06:28:05;;;;;;;5.25;3.65;;;;;;;25.69;41.39;100178.09;5048393;28;20225;-84
2022/07/25 06:30:33;;;;;;;4.35;3.88;;;;;;;25.85;41.01;100178.53;5040998;28;20241;-84
2022/07/25 06:33:00;;;;;;;4.75;4.28;;;;;;;25.99;40.73;100176.66;5053811;28;20440;-85
2022/07/25 06:35:26;;;;;;;4.18;3.50;;;;;;;26.13;40.52;100169.34;5042175;28;20289;-84
2022/07/25 06:37:53;;;;;;;3.85;3.55;;;;;;;26.28;40.27;100169.97;5048768;28;20206;-84
2022/07/25 06:40:20;;;;;;;4.70;4.18;;;;;;;26.45;40.44;100173.13;5048830;28;20217;-84
2022/07/25 06:42:47;;;;;;;4.60;4.10;;;;;;;26.60;40.38;100163.66;5050075;28;20224;-84
2022/07/25 06:45:15;;;;;;;5.72;4.20;;;;;;;26.76;39.99;100154.16;5048759;28;20244;-85
2022/07/25 06:47:44;;;;;;;8.95;4.20;;;;;;;26.91;39.66;100164.81;5049501;28;20228;-85
2022/07/25 06:50:13;;;;;;;6.57;4.22;;;;;;;27.06;39.65;100148.19;5048872;28;20216;-85
2022/07/25 06:52:40;;;;;;;8.73;4.30;;;;;;;27.22;39.22;100147.72;5049473;28;20594;-85
2022/07/25 06:55:08;;;;;;;6.90;4.35;;;;;;;27.37;39.27;100150.16;5041976;28;20208;-85
2022/07/25 06:57:35;;;;;;;5.57;4.28;;;;;;;27.53;38.94;100149.66;5050976;28;20217;-82
2022/07/25 07:00:05;;;;;;;5.35;4.20;;;;;;;27.68;38.77;100132.97;5050683;28;20227;-85
2022/07/25 07:02:32;;;;;;;5.40;4.90;;;;;;;27.83;38.10;100139.78;5051209;28;20209;-82
2022/07/25 07:04:59;;;;;;;5.38;4.95;;;;;;;28.00;37.72;100138.19;5052545;28;20660;-81
2022/07/25 07:07:26;;;;;;;5.57;5.07;;;;;;;28.18;36.90;100139.31;5050012;28;20232;-82
2022/07/25 07:09:53;;;;;;;5.53;4.97;;;;;;;28.33;36.71;100139.81;5041598;28;20204;-82
2022/07/25 07:12:19;;;;;;;5.43;4.93;;;;;;;28.48;36.49;100143.06;5041925;28;20212;-81
2022/07/25 07:14:46;;;;;;;4.72;4.20;;;;;;;28.63;36.08;100137.22;5052913;28;20583;-82
2022/07/25 07:17:13;;;;;;;4.90;4.47;;;;;;;28.80;35.92;100134.75;5052053;28;21709;-82
2022/07/25 07:19:43;;;;;;;5.05;4.65;;;;;;;28.91;35.83;100120.25;5053378;28;20201;-83
2022/07/25 07:22:11;;;;;;;5.90;5.30;;;;;;;29.01;35.76;100124.16;5050148;28;20201;-82
2022/07/25 07:24:37;;;;;;;5.70;5.20;;;;;;;29.08;35.57;100128.69;5052363;28;20197;-83
2022/07/25 07:27:04;;;;;;;5.55;5.05;;;;;;;29.17;35.56;100121.84;5054441;28;20239;-82
2022/07/25 07:29:30;;;;;;;5.70;5.30;;;;;;;29.26;35.31;100117.69;5054403;28;20212;-83
2022/07/25 07:31:57;;;;;;;5.70;5.10;;;;;;;29.42;35.45;100119.81;5052771;28;20200;-85
2022/07/25 07:34:24;;;;;;;5.82;5.25;;;;;;;29.56;34.92;100112.25;5054526;28;20694;-83
2022/07/25 07:36:50;;;;;;;5.93;5.43;;;;;;;29.73;35.15;100112.41;5054464;28;20346;-83
2022/07/25 07:39:18;;;;;;;5.55;5.15;;;;;;;29.86;34.12;100120.44;5056148;28;20209;-83
2022/07/25 07:41:45;;;;;;;5.80;5.30;;;;;;;29.97;34.55;100108.63;5052792;28;20206;-82
2022/07/25 07:44:11;;;;;;;5.40;4.90;;;;;;;30.13;34.17;100101.63;5056284;28;20585;-81
2022/07/25 07:46:38;;;;;;;5.75;5.25;;;;;;;30.30;33.86;100097.91;5045077;28;20286;-81
2022/07/25 07:49:04;;;;;;;5.53;5.03;;;;;;;30.46;33.53;100096.34;5051507;28;20205;-81
2022/07/25 07:51:31;;;;;;;5.40;4.90;;;;;;;30.57;33.21;100084.56;5047154;28;20219;-82
2022/07/25 07:56:44;;;;;;;5.60;5.20;;;;;;;30.91;32.67;100081.97;5053256;28;20228;-83
2022/07/25 07:59:11;;;;;;;5.15;4.75;;;;;;;31.04;32.32;100074.25;5049219;28;20220;-82
2022/07/25 08:01:37;;;;;;;5.88;5.38;;;;;;;31.22;32.21;100064.19;5053642;28;20216;-83
2022/07/25 08:04:04;;;;;;;6.13;5.40;;;;;;;31.36;31.86;100068.28;5050853;28;20205;-82
2022/07/25 08:06:31;;;;;;;5.80;5.40;;;;;;;31.46;31.19;100062.16;5046628;28;20255;-82
2022/07/25 08:08:57;;;;;;;6.15;5.65;;;;;;;31.53;31.21;100058.13;5055055;28;20227;-81
2022/07/25 08:11:25;;;;;;;6.00;5.50;;;;;;;31.62;31.27;100061.34;5055305;28;20209;-81
2022/07/25 08:13:53;;;;;;;6.15;5.72;;;;;;;31.69;31.30;100062.88;5050429;28;20255;-81
2022/07/25 08:16:19;;;;;;;5.90;5.40;;;;;;;31.81;31.29;100050.94;5050090;28;20733;-82
2022/07/25 08:18:46;;;;;;;6.13;5.63;;;;;;;31.92;31.04;100058.28;5052464;28;20232;-82
2022/07/25 08:21:12;;;;;;;6.07;5.53;;;;;;;32.05;30.97;100060.69;5054647;28;20228;-82
2022/07/25 08:23:39;;;;;;;5.82;5.32;;;;;;;32.12;30.64;100055.00;5054261;28;20496;-82
2022/07/25 08:26:06;;;;;;;5.70;5.20;;;;;;;32.19;30.75;100053.75;5047353;28;20225;-83
2022/07/25 08:28:33;;;;;;;6.10;5.57;;;;;;;32.26;30.67;100050.81;5048677;28;20288;-81
2022/07/25 08:31:01;;;;;;;5.55;5.15;;;;;;;32.32;30.39;100050.66;5043235;28;20201;-82
2022/07/25 08:33:28;;;;;;;5.85;5.45;;;;;;;32.39;29.96;100045.81;5051190;28;20289;-82
2022/07/25 08:35:57;;;;;;;5.88;5.38;;;;;;;32.48;29.99;100043.44;5045207;28;20224;-80
2022/07/25 08:38:25;;;;;;;5.65;5.25;;;;;;;32.59;30.04;100047.16;5052534;28;20221;-81
2022/07/25 08:40:53;;;;;;;6.60;5.60;;;;;;;32.64;29.55;100047.22;5053368;28;20304;-81
2022/07/25 08:43:20;;;;;;;5.53;5.13;;;;;;;32.72;29.84;100044.03;5051583;28;20214;-83
2022/07/25 08:45:48;;;;;;;6.47;5.47;;;;;;;32.81;29.65;100047.16;5051994;28;20225;-82
2022/07/25 08:48:18;;;;;;;6.40;5.80;;;;;;;32.86;29.48;100047.25;5047737;28;20212;-83
2022/07/25 08:50:45;;;;;;;7.35;5.22;;;;;;;32.92;29.70;100044.28;5053619;28;20209;-81
2022/07/25 08:53:13;;;;;;;6.05;5.45;;;;;;;33.04;29.49;100035.88;5054641;28;20212;-81
2022/07/25 08:55:39;;;;;;;8.23;6.03;;;;;;;33.10;29.39;100046.72;5041577;28;20754;-82
2022/07/25 08:58:06;;;;;;;11.07;6.18;;;;;;;33.14;29.09;100047.03;5053977;28;20233;-84
2022/07/25 09:00:32;;;;;;;6.13;5.53;;;;;;;33.18;29.34;100037.13;5051414;28;20216;-82
2022/07/25 09:03:02;;;;;;;6.68;6.07;;;;;;;33.31;29.27;100044.19;5050357;28;20197;-82
2022/07/25 09:05:31;;;;;;;6.00;5.50;;;;;;;33.37;29.01;100034.84;5051245;28;20210;-82
2022/07/25 09:08:05;;;;;;;6.20;5.60;;;;;;;33.41;29.20;100036.84;5055467;28;20198;-82
2022/07/25 09:10:32;;;;;;;6.78;6.18;;;;;;;33.45;28.96;100026.94;5051435;28;20603;-83
2022/07/25 09:13:02;;;;;;;6.43;5.93;;;;;;;33.50;29.27;100019.81;5055910;28;20583;-81
2022/07/25 09:15:30;;;;;;;5.70;5.30;;;;;;;33.53;28.99;100031.13;5055219;28;20296;-82
2022/07/25 09:17:57;;;;;;;6.28;5.78;;;;;;;33.63;29.08;100006.38;5053734;28;20221;-83
2022/07/25 09:20:25;;;;;;;6.80;6.25;;;;;;;33.75;29.17;100012.53;5054239;28;20562;-82
2022/07/25 09:22:53;;;;;;;6.78;6.28;;;;;;;33.88;28.97;100014.03;5052991;28;20205;-82
2022/07/25 09:25:26;;;;;;;6.35;5.75;;;;;;;33.98;28.55;100010.53;5054590;28;20208;-82
2022/07/25 09:27:53;;;;;;;6.22;5.72;;;;;;;34.03;28.39;100008.66;5053245;28;20198;-81
2022/07/25 09:30:20;;;;;;;6.40;5.90;;;;;;;34.11;28.51;100010.88;5054469;28;20669;-82
2022/07/25 09:32:46;;;;;;;6.72;6.22;;;;;;;34.21;28.30;100012.06;5051783;28;20206;-81
2022/07/25 09:35:14;;;;;;;7.22;5.80;;;;;;;34.27;27.85;100006.28;5050973;28;20198;-82
2022/07/25 09:37:41;;;;;;;6.63;6.13;;;;;;;34.31;27.99;100009.38;5053818;28;20634;-82
2022/07/25 09:40:15;;;;;;;6.85;6.35;;;;;;;34.37;28.19;100006.38;5054408;28;20220;-82
2022/07/25 09:42:45;;;;;;;6.72;6.13;;;;;;;34.46;28.31;100003.91;5053511;28;20205;-82
2022/07/25 09:45:16;;;;;;;6.57;5.85;;;;;;;34.58;27.60;99998.13;5054304;28;20486;-83
2022/07/25 09:47:54;;;;;;;6.32;5.82;;;;;;;34.56;27.89;99998.44;5053130;28;20221;-82
2022/07/25 09:50:22;;;;;;;6.65;6.15;;;;;;;34.47;27.59;99997.28;5054484;28;20205;-83
2022/07/25 09:52:51;;;;;;;6.88;6.22;;;;;;;34.41;27.84;99993.66;5045168;28;20202;-84
2022/07/25 09:55:19;;;;;;;6.63;6.13;;;;;;;34.41;28.15;99993.66;5050013;28;20201;-83
2022/07/25 09:57:47;;;;;;;6.72;6.22;;;;;;;34.42;27.87;99989.78;5044826;28;20687;-83
2022/07/25 10:00:18;;;;;;;6.78;6.03;;;;;;;34.44;27.89;99995.88;5053840;28;20259;-82
2022/07/25 10:02:52;;;;;;;7.68;6.88;;;;;;;34.50;28.42;99982.91;5054366;28;20304;-84
2022/07/25 10:05:30;;;;;;;7.65;6.22;;;;;;;34.58;27.84;99987.91;5053837;28;20609;-82
2022/07/25 10:07:58;;;;;;;6.68;6.10;;;;;;;34.62;27.78;99986.28;5051266;28;20200;-83
2022/07/25 10:10:27;;;;;;;6.57;6.00;;;;;;;34.65;27.42;99982.13;5053760;28;20348;-82
2022/07/25 10:13:03;;;;;;;6.72;6.15;;;;;;;34.63;27.25;99979.63;5052916;28;20206;-83
2022/07/25 10:15:40;;;;;;;7.90;6.38;;;;;;;34.63;27.68;99981.56;5050404;28;20197;-82
2022/07/25 10:18:08;;;;;;;6.60;6.10;;;;;;;34.65;27.49;99984.91;5052095;28;20260;-83
2022/07/25 10:20:35;;;;;;;6.25;5.75;;;;;;;34.66;27.51;99969.97;5051109;28;20582;-84
2022/07/25 10:23:01;;;;;;;6.32;5.93;;;;;;;34.66;27.69;99969.97;5053569;28;20655;-82
2022/07/25 10:25:30;;;;;;;6.70;6.15;;;;;;;34.67;27.51;99957.81;5049865;28;20967;-84
2022/07/25 10:28:02;;;;;;;6.78;6.18;;;;;;;34.71;27.83;99953.41;5053047;28;20268;-83
2022/07/25 10:30:34;;;;;;;6.90;6.20;;;;;;;34.78;28.15;99957.59;5050440;28;20255;-82
2022/07/25 10:33:03;;;;;;;6.88;6.28;;;;;;;34.85;28.00;99953.72;5053745;28;20594;-83
2022/07/25 10:35:30;;;;;;;6.85;6.18;;;;;;;34.94;27.55;99952.91;5053448;28;20256;-82
2022/07/25 10:37:59;;;;;;;6.20;5.75;;;;;;;35.05;27.59;99946.31;5047901;28;20217;-83
2022/07/25 10:40:27;;;;;;;5.80;5.20;;;;;;;35.18;27.41;99944.91;5051998;28;20300;-83
2022/07/25 10:43:01;;;;;;;5.82;5.32;;;;;;;35.28;26.34;99939.44;5055517;28;20253;-81
2022/07/25 10:45:37;;;;;;;5.53;5.03;;;;;;;35.29;26.27;99941.09;5052903;28;20205;-82
2022/07/25 10:48:07;;;;;;;5.70;5.20;;;;;;;35.36;26.40;99940.81;5062221;22;20592;-74
2022/07/25 10:50:33;;;;;;;5.65;5.25;;;;;;;35.45;26.53;99939.16;5037996;28;20706;-74
2022/07/25 10:53:06;;;;;;;5.72;5.22;;;;;;;35.53;25.96;99940.50;5028004;28;20210;-74
2022/07/25 10:55:36;;;;;;;6.90;5.70;;;;;;;35.57;25.70;99936.91;5030655;28;20737;-74
2022/07/25 10:58:06;;;;;;;5.88;5.45;;;;;;;35.61;26.62;99935.25;5029008;28;20245;-74
2022/07/25 11:00:32;;;;;;;5.05;4.68;;;;;;;35.70;25.90;99933.56;5025107;28;20225;-75
2022/07/25 11:03:00;;;;;;;5.00;4.60;;;;;;;35.78;25.26;99932.19;5077393;22;20244;-68
2022/07/25 11:05:28;;;;;;;5.43;5.03;;;;;;;35.82;25.04;99928.59;5060285;28;20200;-68
2022/07/25 11:07:56;;;;;;;5.85;5.35;;;;;;;35.82;24.94;99911.16;5063461;28;20466;-68
2022/07/25 11:10:27;;;;;;;5.80;5.32;;;;;;;35.86;25.10;99917.75;5064406;28;20212;-68
2022/07/25 11:12:56;;;;;;;6.28;5.63;;;;;;;35.93;25.42;99925.78;5052359;28;20229;-68
2022/07/25 11:15:24;;;;;;;5.97;5.47;;;;;;;35.94;24.72;99921.91;5057381;28;20216;-68
2022/07/25 11:17:52;;;;;;;5.40;4.95;;;;;;;35.94;24.69;99910.81;5051119;28;20202;-68
2022/07/25 11:20:19;;;;;;;5.45;5.05;;;;;;;35.94;24.76;99902.50;5049132;28;20296;-68
2022/07/25 11:22:52;;;;;;;5.82;5.32;;;;;;;35.94;25.14;99903.34;5057521;28;20609;-68
2022/07/25 11:25:21;;;;;;;5.60;5.20;;;;;;;35.94;25.18;99896.97;5054987;28;20259;-68
2022/07/25 11:27:50;;;;;;;5.80;5.38;;;;;;;35.94;24.75;99896.97;5042468;28;20244;-68
2022/07/25 11:30:19;;;;;;;5.45;5.05;;;;;;;35.94;24.81;99894.19;5060108;28;20196;-68
2022/07/25 11:32:50;;;;;;;5.15;4.75;;;;;;;35.93;25.36;99889.75;5052434;28;20227;-68